Time;durP1;ratioP1;P1;durP2;ratioP2;P2;SDS_P1;SDS_P2;PMS_P1;PMS_P2;Temp;Humidity;BMP_temperature;BMP_pressure;BME280_temperature;BME280_humidity;BME280_pressure;Samples;Min_cycle;Max_cycle;Signal;HPM_P1;HPM_P2
2021/09/22 00:00:40;;;;;;;;;;;8.50;99.90;;;;;;5095747;28;20022;-73
2021/09/22 00:03:11;;;;;;;;;;;8.50;99.90;;;;;;5095584;28;19923;-73
2021/09/22 00:05:43;;;;;;;;;;;8.40;99.90;;;;;;5078830;28;20371;-73
2021/09/22 00:08:15;;;;;;;;;;;8.40;99.90;;;;;;5096944;28;19923;-73
2021/09/22 00:10:42;;;;;;;;;;;8.40;99.90;;;;;;5095789;28;20477;-73
2021/09/22 00:13:13;;;;;;;;;;;8.40;99.90;;;;;;5096619;28;19924;-73
2021/09/22 00:15:40;;;;;;;;;;;8.40;99.90;;;;;;5095021;28;19929;-72
2021/09/22 00:18:12;;;;;;;;;;;8.30;99.90;;;;;;5079129;28;19923;-72
2021/09/22 00:20:43;;;;;;;;;;;8.30;99.90;;;;;;5095413;28;19930;-72
2021/09/22 00:23:10;;;;;;;;;;;8.30;99.90;;;;;;5078734;28;20014;-73
2021/09/22 00:25:42;;;;;;;;;;;8.30;99.90;;;;;;5095100;28;20339;-73
2021/09/22 00:28:08;;;;;;;;;;;8.20;99.90;;;;;;5113747;28;19930;-72
2021/09/22 00:30:35;;;;;;;;;;;8.20;99.90;;;;;;5095177;28;19930;-73
2021/09/22 00:33:03;;;;;;;;;;;8.20;99.90;;;;;;5078703;28;19924;-73
2021/09/22 00:35:36;;;;;;;;;;;8.20;99.90;;;;;;5095197;28;19924;-72
2021/09/22 00:38:03;;;;;;;;;;;8.10;99.90;;;;;;5095426;28;19924;-73
2021/09/22 00:40:34;;;;;;;;;;;8.20;99.90;;;;;;5095161;28;19930;-73
2021/09/22 00:43:01;;;;;;;;;;;8.20;99.90;;;;;;5095241;28;19955;-73
2021/09/22 00:45:30;;;;;;;;;;;8.10;99.90;;;;;;5077935;28;19924;-73
2021/09/22 00:48:02;;;;;;;;;;;8.00;99.90;;;;;;5078954;28;20301;-73
2021/09/22 00:50:40;;;;;;;;;;;8.00;99.90;;;;;;5079678;28;20014;-73
2021/09/22 00:53:07;;;;;;;;;;;8.10;99.90;;;;;;5078046;28;20022;-72
2021/09/22 00:55:40;;;;;;;;;;;8.10;99.90;;;;;;5094711;28;20301;-73
2021/09/22 00:58:11;;;;;;;;;;;8.10;99.90;;;;;;5078870;28;20453;-73
2021/09/22 01:00:43;;;;;;;;;;;8.10;99.90;;;;;;5094402;28;20022;-73
2021/09/22 01:03:10;;;;;;;;;;;8.10;99.90;;;;;;5077306;28;19930;-73
2021/09/22 01:05:43;;;;;;;;;;;8.20;99.90;;;;;;5078067;28;19959;-73
2021/09/22 01:08:15;;;;;;;;;;;8.20;99.90;;;;;;5094158;28;20006;-73
2021/09/22 01:10:44;;;;;;;;;;;8.20;99.90;;;;;;5094083;28;20016;-73
2021/09/22 01:13:11;;;;;;;;;;;8.20;99.90;;;;;;5094318;28;20010;-73
2021/09/22 01:15:45;;;;;;;;;;;8.20;99.90;;;;;;5094377;28;19923;-73
2021/09/22 01:18:19;;;;;;;;;;;8.20;99.90;;;;;;5093937;28;20014;-73
2021/09/22 01:20:48;;;;;;;;;;;8.20;99.90;;;;;;5077770;28;19928;-73
2021/09/22 01:23:20;;;;;;;;;;;8.20;99.90;;;;;;5094329;28;19930;-73
2021/09/22 01:25:50;;;;;;;;;;;8.20;99.90;;;;;;5077072;28;20123;-73
2021/09/22 01:28:21;;;;;;;;;;;8.20;99.90;;;;;;5077270;28;20267;-73
2021/09/22 01:30:57;;;;;;;;;;;8.20;99.90;;;;;;5093828;28;19969;-73
2021/09/22 01:33:32;;;;;;;;;;;8.10;99.90;;;;;;5093734;28;20440;-73
2021/09/22 01:36:11;;;;;;;;;;;8.10;99.90;;;;;;5093798;28;19924;-73
2021/09/22 01:38:38;;;;;;;;;;;8.10;99.90;;;;;;5077618;28;19923;-73
2021/09/22 01:41:13;;;;;;;;;;;8.00;99.90;;;;;;5094188;28;19923;-74
2021/09/22 01:43:51;;;;;;;;;;;8.00;99.90;;;;;;5094274;28;19924;-73
2021/09/22 01:46:22;;;;;;;;;;;8.00;99.90;;;;;;5077709;28;19927;-73
2021/09/22 01:48:52;;;;;;;;;;;8.00;99.90;;;;;;5094068;28;19923;-73
2021/09/22 01:51:26;;;;;;;;;;;8.00;99.90;;;;;;5078532;28;20333;-73
2021/09/22 01:54:07;;;;;;;;;;;7.90;99.90;;;;;;5079054;28;19927;-73
2021/09/22 01:56:37;;;;;;;;;;;7.90;99.90;;;;;;5093238;28;19931;-73
2021/09/22 01:59:09;;;;;;;;;;;7.90;99.90;;;;;;5094108;28;20023;-73
2021/09/22 02:01:56;;;;;;;;;;;7.90;99.90;;;;;;5104629;28;19928;-73
2021/09/22 02:04:36;;;;;;;;;;;7.90;99.90;;;;;;5093549;28;19934;-73
2021/09/22 02:07:09;;;;;;;;;;;7.80;99.90;;;;;;5078244;28;19924;-73
2021/09/22 02:09:40;;;;;;;;;;;7.90;99.90;;;;;;5078055;28;19923;-73
2021/09/22 02:12:12;;;;;;;;;;;7.80;99.90;;;;;;5094780;28;20030;-73
2021/09/22 02:14:45;;;;;;;;;;;7.70;99.90;;;;;;5077621;28;19924;-73
2021/09/22 02:17:11;;;;;;;;;;;7.60;99.90;;;;;;5077114;28;19963;-72
2021/09/22 02:19:41;;;;;;;;;;;7.60;99.90;;;;;;5094065;28;19976;-73
2021/09/22 02:22:34;;;;;;;;;;;7.50;99.90;;;;;;5108859;28;19923;-73
2021/09/22 02:25:08;;;;;;;;;;;7.50;99.90;;;;;;5077657;28;19927;-73
2021/09/22 02:27:36;;;;;;;;;;;7.50;99.90;;;;;;5093883;28;19928;-73
2021/09/22 02:30:07;;;;;;;;;;;7.50;99.90;;;;;;5080279;28;19924;-73
2021/09/22 02:32:41;;;;;;;;;;;7.50;99.90;;;;;;5081830;28;19928;-73
2021/09/22 02:35:08;;;;;;;;;;;7.60;99.90;;;;;;5080536;28;19924;-73
2021/09/22 02:37:53;;;;;;;;;;;7.60;99.90;;;;;;5097625;28;19928;-73
2021/09/22 02:40:41;;;;;;;;;;;7.60;99.90;;;;;;5097569;28;19924;-73
2021/09/22 02:43:09;;;;;;;;;;;7.60;99.90;;;;;;5080845;28;19924;-73
2021/09/22 02:45:36;;;;;;;;;;;7.60;99.90;;;;;;5080217;28;19967;-73
2021/09/22 02:48:03;;;;;;;;;;;7.60;99.90;;;;;;5080554;28;19931;-73
2021/09/22 02:50:37;;;;;;;;;;;7.60;99.90;;;;;;5097243;28;19928;-73
2021/09/22 02:53:04;;;;;;;;;;;7.60;99.90;;;;;;5080490;28;19931;-73
2021/09/22 02:55:31;;;;;;;;;;;7.50;99.90;;;;;;5097084;28;19924;-73
2021/09/22 02:57:57;;;;;;;;;;;7.40;99.90;;;;;;5097295;28;19924;-73
2021/09/22 03:00:31;;;;;;;;;;;7.40;99.90;;;;;;5081219;28;19992;-73
2021/09/22 03:02:59;;;;;;;;;;;7.30;99.90;;;;;;5080383;28;19924;-73
2021/09/22 03:05:30;;;;;;;;;;;7.30;99.90;;;;;;5096654;28;19968;-73
2021/09/22 03:08:02;;;;;;;;;;;7.30;99.90;;;;;;5080996;28;19963;-73
2021/09/22 03:10:30;;;;;;;;;;;7.30;99.90;;;;;;5080104;28;19923;-73
2021/09/22 03:13:01;;;;;;;;;;;7.30;99.90;;;;;;5080733;28;19970;-73
2021/09/22 03:15:28;;;;;;;;;;;7.30;99.90;;;;;;5079828;28;20409;-73
2021/09/22 03:17:55;;;;;;;;;;;7.30;99.90;;;;;;5096761;28;19923;-73
2021/09/22 03:20:22;;;;;;;;;;;7.30;99.90;;;;;;5080031;28;19923;-73
2021/09/22 03:22:54;;;;;;;;;;;7.30;99.90;;;;;;5115149;28;19977;-73
2021/09/22 03:25:32;;;;;;;;;;;7.30;99.90;;;;;;5096216;28;19927;-73
2021/09/22 03:28:04;;;;;;;;;;;7.30;99.90;;;;;;5080450;28;19924;-73
2021/09/22 03:30:40;;;;;;;;;;;7.30;99.90;;;;;;5088086;28;19924;-73
2021/09/22 03:33:13;;;;;;;;;;;7.20;99.90;;;;;;5080725;28;19930;-73
2021/09/22 03:35:41;;;;;;;;;;;7.20;99.90;;;;;;5071855;28;20397;-73
2021/09/22 03:38:16;;;;;;;;;;;7.20;99.90;;;;;;5097708;28;19973;-73
2021/09/22 03:40:44;;;;;;;;;;;7.20;99.90;;;;;;5112602;28;20447;-73
2021/09/22 03:43:15;;;;;;;;;;;7.20;99.90;;;;;;5113732;28;20011;-73
2021/09/22 03:45:47;;;;;;;;;;;7.20;99.90;;;;;;5096830;28;19923;-73
2021/09/22 03:48:14;;;;;;;;;;;7.20;99.90;;;;;;5113273;28;19923;-73
2021/09/22 03:50:41;;;;;;;;;;;7.10;99.90;;;;;;5112599;28;19967;-73
2021/09/22 03:53:16;;;;;;;;;;;7.10;99.90;;;;;;5112588;28;19950;-73
2021/09/22 03:55:44;;;;;;;;;;;7.10;99.90;;;;;;5112080;28;19955;-73
2021/09/22 03:58:14;;;;;;;;;;;7.10;99.90;;;;;;5096004;28;19931;-73
2021/09/22 04:00:41;;;;;;;;;;;7.00;99.90;;;;;;5095234;28;19980;-76
2021/09/22 04:03:13;;;;;;;;;;;7.00;99.90;;;;;;5112444;28;19963;-73
2021/09/22 04:05:40;;;;;;;;;;;7.00;99.90;;;;;;5111986;28;19928;-73
2021/09/22 04:08:07;;;;;;;;;;;7.00;99.90;;;;;;5095266;28;20778;-74
2021/09/22 04:10:44;;;;;;;;;;;7.00;99.90;;;;;;5113532;28;19944;-73
2021/09/22 04:13:11;;;;;;;;;;;7.00;99.90;;;;;;5096969;28;19973;-74
2021/09/22 04:15:47;;;;;;;;;;;6.90;99.90;;;;;;5095668;28;19977;-74
2021/09/22 04:18:20;;;;;;;;;;;6.90;99.90;;;;;;5095277;28;20297;-74
2021/09/22 04:20:48;;;;;;;;;;;6.90;99.90;;;;;;5094251;28;20641;-74
2021/09/22 04:23:15;;;;;;;;;;;6.90;99.90;;;;;;5110932;28;19930;-73
2021/09/22 04:25:42;;;;;;;;;;;6.90;99.90;;;;;;5111164;28;20348;-74
2021/09/22 04:28:14;;;;;;;;;;;6.90;99.90;;;;;;5111179;28;20390;-73
2021/09/22 04:30:59;;;;;;;;;;;6.80;99.90;;;;;;5096723;28;20060;-75
2021/09/22 04:33:50;;;;;;;;;;;6.80;99.90;;;;;;5111916;28;20020;-74
2021/09/22 04:36:35;;;;;;;;;;;6.70;99.90;;;;;;5107010;28;20369;-74
2021/09/22 04:39:20;;;;;;;;;;;6.60;99.90;;;;;;5111758;28;20400;-73
2021/09/22 04:42:05;;;;;;;;;;;6.50;99.90;;;;;;5112036;28;19977;-73
2021/09/22 04:44:50;;;;;;;;;;;6.60;99.90;;;;;;5110484;28;19939;-73
2021/09/22 04:47:41;;;;;;;;;;;6.50;99.90;;;;;;5110101;28;19931;-73
2021/09/22 04:50:31;;;;;;;;;;;6.50;99.90;;;;;;5111211;28;19977;-73
2021/09/22 04:53:22;;;;;;;;;;;6.50;99.90;;;;;;5109531;28;19931;-73
2021/09/22 04:56:14;;;;;;;;;;;6.60;99.90;;;;;;5090932;28;19931;-73
2021/09/22 04:59:04;;;;;;;;;;;6.60;99.90;;;;;;5091555;28;19932;-73
2021/09/22 05:01:49;;;;;;;;;;;6.60;99.90;;;;;;5111308;28;19931;-73
2021/09/22 05:04:40;;;;;;;;;;;6.50;99.90;;;;;;5112512;28;19931;-73
2021/09/22 05:07:25;;;;;;;;;;;6.40;99.90;;;;;;5111276;28;19931;-73
2021/09/22 05:10:10;;;;;;;;;;;6.30;99.90;;;;;;5112395;28;19930;-74
2021/09/22 05:12:56;;;;;;;;;;;6.30;99.90;;;;;;5110220;28;19931;-73
2021/09/22 05:15:46;;;;;;;;;;;6.30;99.90;;;;;;5110949;28;19930;-73
2021/09/22 05:18:48;;;;;;;;;;;6.30;99.90;;;;;;5039085;28;20438;-73
2021/09/22 05:21:34;;;;;;;;;;;6.40;99.90;;;;;;5112242;28;19931;-73
2021/09/22 05:24:24;;;;;;;;;;;6.30;99.90;;;;;;5110435;28;20436;-72
2021/09/22 05:27:10;;;;;;;;;;;6.20;99.90;;;;;;5096893;28;20471;-74
2021/09/22 05:29:55;;;;;;;;;;;6.10;99.90;;;;;;5096525;28;20035;-73
2021/09/22 05:32:45;;;;;;;;;;;6.10;99.90;;;;;;5097018;28;19931;-73
2021/09/22 05:35:36;;;;;;;;;;;6.00;99.90;;;;;;5096710;28;19946;-73
2021/09/22 05:38:27;;;;;;;;;;;5.90;99.90;;;;;;5097451;28;20083;-73
2021/09/22 05:41:12;;;;;;;;;;;5.90;99.90;;;;;;5096437;28;19970;-73
2021/09/22 05:43:57;;;;;;;;;;;5.90;99.90;;;;;;5096347;28;20404;-73
2021/09/22 05:46:42;;;;;;;;;;;5.90;99.90;;;;;;5112016;28;19931;-73
2021/09/22 05:49:30;;;;;;;;;;;5.90;99.90;;;;;;5096189;28;19935;-74
2021/09/22 05:52:15;;;;;;;;;;;6.00;99.90;;;;;;5111323;28;20017;-74
2021/09/22 05:55:05;;;;;;;;;;;6.00;99.90;;;;;;5096528;28;20054;-74
2021/09/22 05:57:55;;;;;;;;;;;6.10;99.90;;;;;;5097083;28;20085;-73
2021/09/22 06:00:41;;;;;;;;;;;6.10;99.90;;;;;;5111553;28;19950;-74
2021/09/22 06:03:40;;;;;;;;;;;6.20;99.90;;;;;;5112049;28;19924;-73
2021/09/22 06:06:30;;;;;;;;;;;6.30;99.90;;;;;;5101085;28;19931;-73
2021/09/22 06:09:15;;;;;;;;;;;6.40;99.90;;;;;;5100519;28;19949;-73
2021/09/22 06:12:02;;;;;;;;;;;6.50;99.90;;;;;;5083082;28;19924;-72
2021/09/22 06:14:28;;;;;;;;;;;6.50;99.90;;;;;;5079983;28;19923;-73
2021/09/22 06:17:00;;;;;;;;;;;6.60;99.90;;;;;;5115336;28;19923;-73
2021/09/22 06:19:33;;;;;;;;;;;6.60;99.90;;;;;;5097013;28;19928;-73
2021/09/22 06:22:00;;;;;;;;;;;6.60;99.90;;;;;;5096923;28;19924;-75
2021/09/22 06:24:34;;;;;;;;;;;6.70;99.90;;;;;;5080768;28;20569;-73
2021/09/22 06:27:11;;;;;;;;;;;6.70;99.90;;;;;;5096684;28;20417;-73
2021/09/22 06:29:45;;;;;;;;;;;6.70;99.90;;;;;;5080850;28;19930;-73
2021/09/22 06:32:17;;;;;;;;;;;6.70;99.90;;;;;;5096702;28;20030;-73
2021/09/22 06:35:07;;;;;;;;;;;6.70;99.90;;;;;;5100023;28;20415;-73
2021/09/22 06:37:48;;;;;;;;;;;6.70;99.90;;;;;;5096706;28;19977;-73
2021/09/22 06:40:25;;;;;;;;;;;6.70;99.90;;;;;;5096433;28;19967;-73
2021/09/22 06:42:58;;;;;;;;;;;6.70;99.90;;;;;;5080588;28;19981;-73
2021/09/22 06:45:29;;;;;;;;;;;6.80;99.90;;;;;;5079946;28;20018;-73
2021/09/22 06:48:01;;;;;;;;;;;6.80;99.90;;;;;;5080490;28;19927;-73
2021/09/22 06:50:29;;;;;;;;;;;7.00;99.90;;;;;;5096538;28;19974;-73
2021/09/22 06:53:01;;;;;;;;;;;7.10;99.90;;;;;;5080339;28;19924;-74
2021/09/22 06:55:28;;;;;;;;;;;7.20;99.90;;;;;;5095697;28;20394;-73
2021/09/22 06:57:59;;;;;;;;;;;7.20;99.90;;;;;;5097304;28;19975;-73
2021/09/22 07:00:27;;;;;;;;;;;7.30;99.90;;;;;;5079306;28;20478;-73
2021/09/22 07:02:53;;;;;;;;;;;7.40;99.90;;;;;;5096136;28;20006;-73
2021/09/22 07:05:25;;;;;;;;;;;7.40;99.90;;;;;;5096666;28;20023;-73
2021/09/22 07:07:57;;;;;;;;;;;7.40;99.90;;;;;;5096546;28;20023;-73
2021/09/22 07:10:31;;;;;;;;;;;7.50;99.90;;;;;;5114272;28;20383;-74
2021/09/22 07:13:03;;;;;;;;;;;7.60;99.90;;;;;;5079823;28;20018;-73
2021/09/22 07:15:30;;;;;;;;;;;7.70;99.90;;;;;;5112568;28;20484;-74
2021/09/22 07:18:01;;;;;;;;;;;7.70;99.90;;;;;;5079886;28;19967;-74
2021/09/22 07:20:33;;;;;;;;;;;7.90;99.90;;;;;;5114311;28;19971;-72
2021/09/22 07:23:00;;;;;;;;;;;8.00;99.90;;;;;;5095666;28;19977;-73
2021/09/22 07:25:31;;;;;;;;;;;8.10;99.90;;;;;;5095096;28;20449;-73
2021/09/22 07:28:03;;;;;;;;;;;8.20;99.90;;;;;;5096628;28;20267;-73
2021/09/22 07:30:35;;;;;;;;;;;8.30;99.90;;;;;;5113823;28;19923;-73
2021/09/22 07:33:07;;;;;;;;;;;8.50;99.90;;;;;;5095575;28;20010;-74
2021/09/22 07:35:33;;;;;;;;;;;8.60;99.90;;;;;;5095411;28;20018;-73
2021/09/22 07:38:05;;;;;;;;;;;8.70;99.90;;;;;;5095667;28;20393;-74
2021/09/22 07:40:37;;;;;;;;;;;8.80;99.90;;;;;;5095388;28;19958;-73
2021/09/22 07:43:03;;;;;;;;;;;8.90;99.90;;;;;;5095355;28;20309;-73
2021/09/22 07:45:35;;;;;;;;;;;9.00;99.90;;;;;;5113134;28;20022;-73
2021/09/22 07:48:02;;;;;;;;;;;9.10;99.90;;;;;;5095575;28;19978;-74
2021/09/22 07:50:34;;;;;;;;;;;9.20;99.90;;;;;;5113508;28;20357;-74
2021/09/22 07:53:00;;;;;;;;;;;9.30;99.90;;;;;;5078364;28;19951;-73
2021/09/22 07:55:32;;;;;;;;;;;9.40;99.90;;;;;;5095732;28;19930;-74
2021/09/22 07:58:04;;;;;;;;;;;9.50;99.90;;;;;;5095143;28;20010;-74
2021/09/22 08:00:36;;;;;;;;;;;9.70;99.90;;;;;;5079107;28;19934;-74
2021/09/22 08:03:07;;;;;;;;;;;9.70;99.90;;;;;;5095962;28;20018;-73
2021/09/22 08:05:39;;;;;;;;;;;9.80;99.90;;;;;;5112791;28;20389;-73
2021/09/22 08:08:06;;;;;;;;;;;9.90;99.90;;;;;;5078212;28;20019;-73
2021/09/22 08:10:38;;;;;;;;;;;10.10;99.90;;;;;;5078942;28;20045;-73
2021/09/22 08:13:05;;;;;;;;;;;10.20;99.90;;;;;;5078319;28;19963;-73
2021/09/22 08:15:32;;;;;;;;;;;10.30;99.90;;;;;;5113192;28;19937;-73
2021/09/22 08:17:58;;;;;;;;;;;10.50;99.90;;;;;;5095237;28;19927;-74
2021/09/22 08:20:30;;;;;;;;;;;10.60;99.90;;;;;;5096101;28;20002;-73
2021/09/22 08:22:57;;;;;;;;;;;10.70;99.90;;;;;;5095431;28;20018;-73
2021/09/22 08:25:28;;;;;;;;;;;10.80;99.90;;;;;;5095609;28;19928;-74
2021/09/22 08:28:00;;;;;;;;;;;11.00;99.90;;;;;;5095836;28;20026;-74
2021/09/22 08:30:32;;;;;;;;;;;11.10;99.90;;;;;;5095641;28;19951;-74
2021/09/22 08:33:00;;;;;;;;;;;11.20;99.90;;;;;;5094839;28;20201;-74
2021/09/22 08:35:28;;;;;;;;;;;11.30;99.90;;;;;;5112819;28;19966;-74
2021/09/22 08:37:55;;;;;;;;;;;11.40;99.90;;;;;;5078670;28;19924;-74
2021/09/22 08:40:27;;;;;;;;;;;11.50;99.90;;;;;;5094673;28;19934;-74
2021/09/22 08:42:59;;;;;;;;;;;11.60;99.90;;;;;;5112857;28;20102;-73
2021/09/22 08:45:26;;;;;;;;;;;11.70;99.90;;;;;;5094112;28;20018;-74
2021/09/22 08:47:57;;;;;;;;;;;11.90;99.90;;;;;;5113143;28;19924;-75
2021/09/22 08:50:29;;;;;;;;;;;11.90;99.90;;;;;;5078469;28;19934;-74
2021/09/22 08:53:01;;;;;;;;;;;12.00;99.90;;;;;;5094367;28;20030;-73
2021/09/22 08:55:33;;;;;;;;;;;12.10;99.90;;;;;;5094007;28;20363;-74
2021/09/22 08:58:05;;;;;;;;;;;12.20;99.90;;;;;;5112856;28;19970;-74
2021/09/22 09:00:36;;;;;;;;;;;12.30;99.90;;;;;;5078442;28;20023;-74
2021/09/22 09:03:27;;;;;;;;;;;12.40;99.90;;;;;;5078823;28;20018;-74
2021/09/22 09:06:13;;;;;;;;;;;12.50;99.90;;;;;;5077861;28;19974;-74
2021/09/22 09:08:40;;;;;;;;;;;12.60;99.90;;;;;;5094287;28;19924;-74
2021/09/22 09:11:11;;;;;;;;;;;12.70;99.90;;;;;;5095216;28;19967;-74
2021/09/22 09:13:47;;;;;;;;;;;12.80;99.90;;;;;;5093934;28;20374;-74
2021/09/22 09:16:17;;;;;;;;;;;13.00;99.90;;;;;;5093719;28;19959;-74
2021/09/22 09:18:48;;;;;;;;;;;13.10;99.90;;;;;;5112400;28;19963;-74
2021/09/22 09:21:23;;;;;;;;;;;13.20;99.90;;;;;;5112163;28;20027;-74
2021/09/22 09:23:57;;;;;;;;;;;13.40;99.90;;;;;;5094021;28;20018;-74
2021/09/22 09:26:30;;;;;;;;;;;13.50;99.90;;;;;;5112197;28;19986;-74
2021/09/22 09:28:58;;;;;;;;;;;13.50;99.90;;;;;;5112298;28;19928;-74
2021/09/22 09:31:29;;;;;;;;;;;13.60;99.90;;;;;;5094115;28;19956;-74
2021/09/22 09:34:03;;;;;;;;;;;13.60;99.90;;;;;;5112213;28;19930;-74
2021/09/22 09:36:35;;;;;;;;;;;13.70;99.90;;;;;;5077636;28;20010;-74
2021/09/22 09:39:09;;;;;;;;;;;13.90;99.90;;;;;;5093197;28;20021;-74
2021/09/22 09:41:37;;;;;;;;;;;14.00;99.90;;;;;;5093906;28;19924;-74
2021/09/22 09:44:10;;;;;;;;;;;14.10;99.90;;;;;;5077574;28;19963;-74
2021/09/22 09:46:42;;;;;;;;;;;14.20;99.90;;;;;;5094761;28;20026;-73
2021/09/22 09:49:15;;;;;;;;;;;14.30;99.90;;;;;;5077667;28;19958;-74
2021/09/22 09:51:48;;;;;;;;;;;14.40;99.90;;;;;;5093491;28;19947;-74
2021/09/22 09:54:19;;;;;;;;;;;14.50;99.90;;;;;;5093096;28;20348;-74
2021/09/22 09:56:47;;;;;;;;;;;14.50;99.90;;;;;;5093596;28;20026;-74
2021/09/22 09:59:14;;;;;;;;;;;14.70;99.90;;;;;;5093387;28;20023;-73
2021/09/22 10:01:47;;;;;;;;;;;14.80;99.90;;;;;;5077355;28;20039;-74
2021/09/22 10:04:17;;;;;;;;;;;14.90;99.90;;;;;;5092894;28;19959;-74
2021/09/22 10:06:44;;;;;;;;;;;14.90;99.90;;;;;;5093428;28;19962;-74
2021/09/22 10:09:16;;;;;;;;;;;14.90;99.90;;;;;;5094529;28;20018;-74
2021/09/22 10:11:48;;;;;;;;;;;15.00;99.90;;;;;;5093737;28;20018;-74
2021/09/22 10:14:16;;;;;;;;;;;15.00;99.90;;;;;;5093008;28;19928;-73
2021/09/22 10:16:48;;;;;;;;;;;15.00;99.90;;;;;;5094459;28;19973;-73
2021/09/22 10:19:20;;;;;;;;;;;15.00;99.90;;;;;;5093292;28;20018;-74
2021/09/22 10:21:52;;;;;;;;;;;15.10;99.90;;;;;;5111763;28;19924;-73
2021/09/22 10:24:20;;;;;;;;;;;15.20;99.90;;;;;;5076269;28;19966;-73
2021/09/22 10:26:46;;;;;;;;;;;15.30;99.90;;;;;;5092862;28;19969;-73
2021/09/22 10:29:35;;;;;;;;;;;15.50;99.90;;;;;;5111746;28;19923;-74
2021/09/22 10:32:03;;;;;;;;;;;15.50;99.90;;;;;;5076560;28;19963;-73
2021/09/22 10:34:36;;;;;;;;;;;15.60;99.90;;;;;;5110896;28;20015;-74
2021/09/22 10:37:05;;;;;;;;;;;15.70;99.90;;;;;;5076760;28;19989;-73
2021/09/22 10:39:34;;;;;;;;;;;15.80;99.90;;;;;;5111646;28;20393;-72
2021/09/22 10:42:25;;;;;;;;;;;15.80;99.90;;;;;;5077444;28;19982;-73
2021/09/22 10:45:09;;;;;;;;;;;15.80;99.90;;;;;;5093156;28;20454;-72
2021/09/22 10:47:41;;;;;;;;;;;15.80;99.90;;;;;;5111700;28;20026;-74
2021/09/22 10:50:11;;;;;;;;;;;15.80;99.90;;;;;;5094472;28;19978;-73
2021/09/22 10:52:43;;;;;;;;;;;15.90;99.90;;;;;;5096825;28;19930;-73
2021/09/22 10:55:18;;;;;;;;;;;16.00;99.90;;;;;;5114736;28;20006;-72
2021/09/22 10:57:46;;;;;;;;;;;16.10;99.90;;;;;;5097016;28;20421;-73
2021/09/22 11:00:20;;;;;;;;;;;16.20;99.90;;;;;;5080084;28;19963;-72
2021/09/22 11:02:54;;;;;;;;;;;16.30;99.90;;;;;;5097790;28;19955;-73
2021/09/22 11:05:25;;;;;;;;;;;16.30;99.90;;;;;;5114383;28;20394;-73
2021/09/22 11:07:52;;;;;;;;;;;16.40;99.90;;;;;;5114914;28;20026;-73
2021/09/22 11:10:34;;;;;;;;;;;16.40;99.90;;;;;;5096651;28;20022;-73
2021/09/22 11:13:19;;;;;;;;;;;16.40;99.90;;;;;;5114485;28;20061;-73
2021/09/22 11:15:46;;;;;;;;;;;16.60;99.90;;;;;;5113887;28;19934;-73
2021/09/22 11:18:18;;;;;;;;;;;16.80;99.90;;;;;;5096586;28;19923;-72
2021/09/22 11:20:53;;;;;;;;;;;16.90;99.90;;;;;;5114937;28;20314;-73
2021/09/22 11:23:26;;;;;;;;;;;16.80;99.90;;;;;;5097276;28;19924;-72
2021/09/22 11:26:07;;;;;;;;;;;16.80;99.90;;;;;;5113918;28;20015;-73
2021/09/22 11:28:34;;;;;;;;;;;16.90;99.90;;;;;;5096550;28;20317;-73
2021/09/22 11:31:06;;;;;;;;;;;17.00;99.90;;;;;;5097267;28;19963;-73
2021/09/22 11:33:39;;;;;;;;;;;17.20;99.90;;;;;;5114254;28;19967;-73
2021/09/22 11:36:13;;;;;;;;;;;17.40;99.90;;;;;;5113688;28;19930;-73
2021/09/22 11:38:44;;;;;;;;;;;17.40;99.90;;;;;;5093601;28;19978;-73
2021/09/22 11:41:18;;;;;;;;;;;17.50;99.90;;;;;;5112351;28;19953;-73
2021/09/22 11:43:50;;;;;;;;;;;17.50;99.90;;;;;;5095934;28;19938;-73
2021/09/22 11:46:17;;;;;;;;;;;17.50;99.90;;;;;;5078774;28;20014;-73
2021/09/22 11:48:49;;;;;;;;;;;17.50;99.90;;;;;;5079698;28;19940;-74
2021/09/22 11:51:21;;;;;;;;;;;17.40;99.90;;;;;;5095562;28;19924;-73
2021/09/22 11:53:48;;;;;;;;;;;17.30;99.90;;;;;;5095575;28;20027;-73
2021/09/22 11:56:21;;;;;;;;;;;17.20;99.90;;;;;;5096236;28;19923;-73
2021/09/22 11:58:54;;;;;;;;;;;17.30;99.90;;;;;;5094677;28;19930;-73
2021/09/22 12:01:20;;;;;;;;;;;17.30;99.90;;;;;;5112092;27;19971;-73
2021/09/22 12:03:52;;;;;;;;;;;17.40;99.90;;;;;;5072798;28;20002;-73
2021/09/22 12:06:24;;;;;;;;;;;17.40;99.90;;;;;;5059251;28;19931;-73
2021/09/22 12:08:55;;;;;;;;;;;17.50;99.90;;;;;;5126568;27;20006;-73
2021/09/22 12:11:27;;;;;;;;;;;17.60;99.90;;;;;;5116046;27;19924;-73
2021/09/22 12:13:54;;;;;;;;;;;17.60;99.90;;;;;;5076368;28;19974;-73
2021/09/22 12:16:22;;;;;;;;;;;17.50;99.90;;;;;;5106049;28;19950;-73
2021/09/22 12:18:53;;;;;;;;;;;17.50;99.90;;;;;;5092802;28;19924;-74
2021/09/22 12:21:29;;;;;;;;;;;17.60;99.90;;;;;;5093427;28;19924;-74
2021/09/22 12:24:02;;;;;;;;;;;17.80;99.90;;;;;;5091590;28;19924;-74
2021/09/22 12:26:48;;;;;;;;;;;17.90;99.90;;;;;;5074577;28;19928;-73
2021/09/22 12:29:21;;;;;;;;;;;17.90;99.90;;;;;;5105155;27;19927;-73
2021/09/22 12:31:47;;;;;;;;;;;18.00;99.90;;;;;;5133637;27;19930;-73
2021/09/22 12:34:22;;;;;;;;;;;18.10;99.90;;;;;;5114795;27;19924;-73
2021/09/22 12:36:55;;;;;;;;;;;18.20;99.90;;;;;;5098700;27;19923;-73
2021/09/22 12:39:27;;;;;;;;;;;18.30;99.90;;;;;;5133296;27;19923;-74
2021/09/22 12:42:04;;;;;;;;;;;18.20;99.90;;;;;;5133556;27;19923;-73
2021/09/22 12:44:54;;;;;;;;;;;18.10;99.90;;;;;;5115269;27;19972;-73
2021/09/22 12:47:27;;;;;;;;;;;18.00;99.90;;;;;;5115992;27;19938;-74
2021/09/22 12:50:11;;;;;;;;;;;17.80;99.90;;;;;;5099561;27;19923;-74
2021/09/22 12:52:38;;;;;;;;;;;17.80;99.90;;;;;;5098847;27;20352;-73
2021/09/22 12:55:12;;;;;;;;;;;17.90;99.90;;;;;;5114351;27;19981;-74
2021/09/22 12:57:44;;;;;;;;;;;17.90;99.90;;;;;;5114057;27;19957;-73
2021/09/22 13:00:30;;;;;;;;;;;18.00;99.90;;;;;;5094606;28;20386;-74
2021/09/22 13:03:11;;;;;;;;;;;18.10;99.90;;;;;;5094478;28;19963;-74
2021/09/22 13:05:45;;;;;;;;;;;18.20;99.90;;;;;;5077610;28;20019;-74
2021/09/22 13:08:17;;;;;;;;;;;18.30;99.90;;;;;;5094271;28;19937;-73
2021/09/22 13:11:00;;;;;;;;;;;18.20;99.90;;;;;;5078076;28;19930;-74
2021/09/22 13:13:56;;;;;;;;;;;18.30;99.90;;;;;;5093486;28;19985;-74
2021/09/22 13:16:27;;;;;;;;;;;18.30;99.90;;;;;;5076341;28;19927;-73
2021/09/22 13:18:59;;;;;;;;;;;18.40;99.90;;;;;;5094036;28;19923;-73
2021/09/22 13:21:26;;;;;;;;;;;18.30;99.90;;;;;;5071514;28;19923;-73
2021/09/22 13:24:03;;;;;;;;;;;18.20;99.90;;;;;;5111680;28;20394;-73
2021/09/22 13:26:30;;;;;;;;;;;18.30;99.90;;;;;;5094142;28;19949;-73
2021/09/22 13:29:02;;;;;;;;;;;18.40;99.90;;;;;;5093866;28;19978;-73
2021/09/22 13:31:31;;;;;;;;;;;18.60;99.90;;;;;;5094220;28;19924;-73
2021/09/22 13:33:58;;;;;;;;;;;18.70;99.90;;;;;;5075866;28;19985;-74
2021/09/22 13:36:25;;;;;;;;;;;18.90;99.90;;;;;;5075932;28;19923;-74
2021/09/22 13:38:57;;;;;;;;;;;19.10;99.90;;;;;;5093875;28;19973;-74
2021/09/22 13:41:24;;;;;;;;;;;19.10;99.90;;;;;;5077119;28;19977;-74
2021/09/22 13:43:57;;;;;;;;;;;19.00;99.90;;;;;;5093709;28;20429;-74
2021/09/22 13:46:24;;;;;;;;;;;19.00;99.90;;;;;;5077020;28;20455;-73
2021/09/22 13:48:56;;;;;;;;;;;19.00;99.90;;;;;;5095069;28;19924;-74
2021/09/22 13:51:23;;;;;;;;;;;18.90;99.90;;;;;;5077335;28;19928;-74
2021/09/22 13:53:49;;;;;;;;;;;18.90;99.90;;;;;;5093736;28;19924;-74
2021/09/22 13:56:16;;;;;;;;;;;18.80;99.90;;;;;;5076611;28;20356;-74
2021/09/22 13:58:43;;;;;;;;;;;18.70;99.90;;;;;;5077303;28;19923;-74
2021/09/22 14:01:15;;;;;;;;;;;18.70;99.90;;;;;;5093593;28;19968;-74
2021/09/22 14:03:42;;;;;;;;;;;18.80;99.90;;;;;;5077257;28;20000;-74
2021/09/22 14:06:08;;;;;;;;;;;18.90;99.90;;;;;;5094680;28;19927;-74
2021/09/22 14:08:35;;;;;;;;;;;18.90;99.90;;;;;;5077525;28;20009;-74
2021/09/22 14:11:03;;;;;;;;;;;18.80;99.90;;;;;;5076836;28;19924;-74
2021/09/22 14:13:30;;;;;;;;;;;18.70;99.90;;;;;;5076769;28;19924;-74
2021/09/22 14:16:02;;;;;;;;;;;18.50;99.90;;;;;;5093426;28;19967;-74
2021/09/22 14:18:28;;;;;;;;;;;18.40;99.90;;;;;;5076567;28;19923;-74
2021/09/22 14:21:00;;;;;;;;;;;18.30;99.90;;;;;;5093617;28;19963;-74
2021/09/22 14:23:27;;;;;;;;;;;18.40;99.90;;;;;;5090920;28;20348;-74
2021/09/22 14:25:59;;;;;;;;;;;18.60;99.90;;;;;;5080030;28;20012;-74
2021/09/22 14:28:26;;;;;;;;;;;18.70;99.90;;;;;;5097850;28;19924;-74
2021/09/22 14:30:58;;;;;;;;;;;18.90;99.90;;;;;;5097545;28;20011;-74
2021/09/22 14:33:24;;;;;;;;;;;19.00;99.90;;;;;;5097574;28;19928;-73
2021/09/22 14:35:57;;;;;;;;;;;19.00;99.90;;;;;;5080476;28;19982;-73
2021/09/22 14:38:29;;;;;;;;;;;19.00;99.90;;;;;;5097514;28;19960;-72
2021/09/22 14:40:56;;;;;;;;;;;18.80;99.90;;;;;;5087465;28;19924;-73
2021/09/22 14:43:23;;;;;;;;;;;18.70;99.90;;;;;;5090814;28;19959;-74
2021/09/22 14:45:55;;;;;;;;;;;18.50;99.90;;;;;;5089801;28;19928;-74
2021/09/22 14:48:22;;;;;;;;;;;18.60;99.90;;;;;;5075994;28;19950;-73
2021/09/22 14:50:49;;;;;;;;;;;18.90;99.90;;;;;;5078071;28;19989;-73
2021/09/22 14:53:16;;;;;;;;;;;19.20;99.90;;;;;;5078956;28;19931;-74
2021/09/22 14:55:42;;;;;;;;;;;19.40;99.90;;;;;;5112207;28;19924;-74
2021/09/22 14:58:09;;;;;;;;;;;19.50;99.90;;;;;;5092258;28;20291;-74